createdAt,value
2019-02-26T00:01:50.468Z,4.90
2019-02-26T00:04:20.811Z,5.27
2019-02-26T00:06:51.415Z,4.97
2019-02-26T00:09:24.458Z,5.03
2019-02-26T00:11:54.044Z,4.67
2019-02-26T00:14:24.879Z,5.40
2019-02-26T00:16:55.776Z,4.63
2019-02-26T00:19:25.618Z,4.80
2019-02-26T00:21:55.517Z,4.80
2019-02-26T00:24:30.316Z,5.50
2019-02-26T00:26:58.609Z,4.90
2019-02-26T00:29:30.280Z,5.00
2019-02-26T00:32:00.927Z,5.47
2019-02-26T00:34:32.339Z,4.57
2019-02-26T00:37:04.053Z,4.93
2019-02-26T00:39:33.917Z,4.70
2019-02-26T00:42:05.385Z,5.03
2019-02-26T00:44:37.277Z,4.63
2019-02-26T00:47:09.007Z,4.33
2019-02-26T00:49:39.698Z,5.10
2019-02-26T00:52:11.070Z,4.83
2019-02-26T00:54:41.289Z,4.30
2019-02-26T00:57:12.269Z,4.10
2019-02-26T00:59:44.048Z,3.90
2019-02-26T01:02:14.241Z,4.57
2019-02-26T01:04:46.255Z,5.37
2019-02-26T01:07:16.354Z,3.23
2019-02-26T01:09:47.881Z,4.50
2019-02-26T01:12:18.340Z,3.20
2019-02-26T01:14:48.652Z,4.63
2019-02-26T01:17:20.055Z,3.30
2019-02-26T01:19:49.829Z,3.47
2019-02-26T01:22:19.736Z,4.83
2019-02-26T01:24:51.958Z,3.87
2019-02-26T01:27:21.866Z,4.80
2019-02-26T01:29:53.521Z,4.80
2019-02-26T01:32:24.932Z,5.17
2019-02-26T01:34:54.841Z,3.77
2019-02-26T01:37:27.721Z,4.37
2019-02-26T01:39:56.926Z,3.30
2019-02-26T01:42:27.540Z,3.87
2019-02-26T01:44:58.210Z,4.47
2019-02-26T01:47:28.522Z,4.50
2019-02-26T01:49:59.413Z,5.07
2019-02-26T01:52:29.475Z,5.37
2019-02-26T01:55:00.613Z,4.90
2019-02-26T01:57:30.760Z,4.10
2019-02-26T02:00:01.354Z,4.47
2019-02-26T02:02:32.798Z,6.10
2019-02-26T02:05:04.841Z,3.50
2019-02-26T02:07:34.453Z,4.07
2019-02-26T02:10:07.341Z,4.10
2019-02-26T02:12:39.119Z,4.77
2019-02-26T02:15:17.913Z,3.67
2019-02-26T02:17:46.729Z,5.13
2019-02-26T02:20:20.835Z,3.60
2019-02-26T02:22:48.544Z,3.47
2019-02-26T02:25:18.433Z,3.70
2019-02-26T02:27:51.805Z,4.00
2019-02-26T02:30:26.744Z,3.83
2019-02-26T02:32:55.079Z,4.20
2019-02-26T02:35:22.895Z,3.77
2019-02-26T02:37:53.544Z,4.23
2019-02-26T02:40:24.402Z,3.80
2019-02-26T02:42:54.388Z,4.57
2019-02-26T02:45:24.215Z,4.03
2019-02-26T02:47:57.856Z,4.67
2019-02-26T02:50:25.582Z,5.17
2019-02-26T02:52:56.880Z,4.00
2019-02-26T02:55:26.923Z,3.87
2019-02-26T02:57:59.987Z,3.67
2019-02-26T03:00:32.177Z,3.87
2019-02-26T03:03:00.977Z,4.30
2019-02-26T03:05:34.371Z,4.60
2019-02-26T03:08:03.441Z,3.87
2019-02-26T03:10:34.582Z,4.77
2019-02-26T03:13:04.807Z,4.10
2019-02-26T03:15:35.858Z,4.90
2019-02-26T03:18:07.163Z,3.77
2019-02-26T03:20:40.280Z,4.13
2019-02-26T03:23:11.894Z,3.57
2019-02-26T03:25:41.455Z,3.90
2019-02-26T03:28:12.157Z,3.67
2019-02-26T03:30:44.318Z,3.13
2019-02-26T03:33:13.493Z,3.43
2019-02-26T03:35:43.278Z,4.07
2019-02-26T03:38:15.026Z,4.63
2019-02-26T03:40:44.550Z,3.63
2019-02-26T03:43:16.286Z,3.23
2019-02-26T03:45:48.070Z,3.50
2019-02-26T03:48:20.284Z,3.17
2019-02-26T03:50:48.973Z,3.23
2019-02-26T03:53:19.660Z,4.10
2019-02-26T03:55:49.640Z,3.97
2019-02-26T03:58:19.624Z,3.97
2019-02-26T04:00:49.659Z,3.60
2019-02-26T04:03:19.549Z,2.97
2019-02-26T04:05:49.382Z,3.17
2019-02-26T04:08:21.875Z,3.43
2019-02-26T04:10:53.654Z,4.80
2019-02-26T04:13:22.496Z,3.60
2019-02-26T04:15:54.112Z,3.50
2019-02-26T04:18:24.113Z,2.87
2019-02-26T04:20:53.873Z,3.47
2019-02-26T04:23:23.774Z,3.80
2019-02-26T04:26:01.748Z,3.40
2019-02-26T04:28:40.370Z,5.30
2019-02-26T04:31:23.689Z,3.63
2019-02-26T04:34:11.762Z,3.40
2019-02-26T04:36:56.401Z,3.23
2019-02-26T04:39:29.295Z,3.53
2019-02-26T04:42:17.578Z,3.00
2019-02-26T04:45:09.045Z,3.67
2019-02-26T04:47:56.941Z,3.50
2019-02-26T04:50:28.693Z,3.50
2019-02-26T04:52:59.766Z,3.13
2019-02-26T04:55:29.813Z,3.77
2019-02-26T04:57:59.623Z,3.53
2019-02-26T05:00:32.497Z,4.17
2019-02-26T05:03:01.338Z,3.90
2019-02-26T05:05:34.164Z,3.50
2019-02-26T05:08:04.211Z,3.00
2019-02-26T05:10:35.219Z,3.77
2019-02-26T05:13:07.349Z,4.07
2019-02-26T05:15:36.845Z,3.70
2019-02-26T05:18:06.673Z,3.57
2019-02-26T05:20:37.424Z,4.07
2019-02-26T05:23:07.939Z,3.80
2019-02-26T05:25:39.661Z,4.07
2019-02-26T05:28:14.077Z,3.57
2019-02-26T05:30:43.861Z,4.20
2019-02-26T05:33:13.995Z,4.13
2019-02-26T05:35:46.256Z,3.00
2019-02-26T05:38:15.827Z,3.07
2019-02-26T05:40:47.618Z,2.83
2019-02-26T05:43:17.316Z,4.83
2019-02-26T05:45:48.560Z,3.87
2019-02-26T05:48:20.588Z,3.53
2019-02-26T05:50:50.141Z,3.47
2019-02-26T05:53:19.953Z,4.77
2019-02-26T05:55:51.206Z,5.13
2019-02-26T05:58:21.588Z,4.30
2019-02-26T06:00:51.475Z,5.23
2019-02-26T06:03:21.287Z,3.53
2019-02-26T06:05:51.995Z,3.50
2019-02-26T06:08:25.993Z,3.50
2019-02-26T06:10:55.844Z,4.13
2019-02-26T06:13:25.682Z,3.47
2019-02-26T06:15:58.606Z,4.03
2019-02-26T06:18:27.400Z,4.30
2019-02-26T06:20:58.639Z,4.83
2019-02-26T06:23:33.455Z,3.87
2019-02-26T06:26:02.307Z,3.93
2019-02-26T06:28:35.498Z,4.53
2019-02-26T06:31:03.815Z,4.80
2019-02-26T06:33:35.987Z,4.40
2019-02-26T06:36:06.457Z,3.90
2019-02-26T06:38:36.307Z,4.83
2019-02-26T06:41:06.972Z,6.30
2019-02-26T06:43:39.636Z,3.97
2019-02-26T06:46:11.163Z,4.77
2019-02-26T06:48:39.971Z,3.97
2019-02-26T06:51:09.784Z,5.57
2019-02-26T06:53:40.117Z,6.27
2019-02-26T06:56:11.633Z,6.70
2019-02-26T06:58:43.243Z,5.30
2019-02-26T07:01:14.396Z,4.67
2019-02-26T07:03:44.805Z,4.73
2019-02-26T07:06:18.442Z,5.00
2019-02-26T07:08:47.194Z,6.20
2019-02-26T07:11:17.784Z,5.07
2019-02-26T07:13:47.752Z,4.97
2019-02-26T07:16:18.039Z,5.37
2019-02-26T07:18:49.233Z,5.20
2019-02-26T07:21:19.157Z,5.33
2019-02-26T07:23:49.110Z,5.20
2019-02-26T07:26:20.731Z,7.03
2019-02-26T07:28:51.060Z,5.43
2019-02-26T07:31:24.185Z,5.93
2019-02-26T07:33:55.771Z,5.97
2019-02-26T07:36:27.612Z,6.63
2019-02-26T07:38:56.684Z,6.00
2019-02-26T07:41:29.826Z,4.87
2019-02-26T07:44:00.028Z,5.53
2019-02-26T07:46:30.154Z,5.27
2019-02-26T07:49:01.907Z,6.33
2019-02-26T07:51:33.363Z,6.03
2019-02-26T07:54:03.022Z,5.57
2019-02-26T07:56:32.924Z,5.07
2019-02-26T07:59:06.713Z,5.07
2019-02-26T08:01:35.440Z,5.13
2019-02-26T08:04:06.272Z,5.07
2019-02-26T08:06:38.459Z,4.83
2019-02-26T08:09:11.556Z,5.00
2019-02-26T08:11:41.359Z,7.43
2019-02-26T08:14:13.756Z,8.20
2019-02-26T08:16:43.448Z,5.20
2019-02-26T08:19:13.346Z,4.87
2019-02-26T08:21:43.271Z,15.57
2019-02-26T08:24:14.829Z,6.37
2019-02-26T08:26:45.236Z,5.33
2019-02-26T08:29:16.274Z,5.83
2019-02-26T08:31:47.477Z,4.57
2019-02-26T08:34:18.729Z,5.50
2019-02-26T08:36:48.555Z,5.30
2019-02-26T08:39:18.373Z,4.73
2019-02-26T08:42:08.197Z,4.73
2019-02-26T08:44:38.064Z,5.20
2019-02-26T08:47:11.124Z,5.93
2019-02-26T08:49:40.710Z,4.80
2019-02-26T08:52:11.493Z,5.77
2019-02-26T08:54:41.445Z,5.03
2019-02-26T08:57:12.238Z,5.20
2019-02-26T08:59:44.507Z,5.90
2019-02-26T09:02:13.754Z,5.97
2019-02-26T09:04:45.062Z,5.67
2019-02-26T09:07:16.435Z,5.40
2019-02-26T09:09:48.127Z,5.43
2019-02-26T09:12:19.833Z,6.67
2019-02-26T09:14:50.729Z,5.77
2019-02-26T09:17:23.114Z,5.33
2019-02-26T09:19:54.661Z,5.60
2019-02-26T09:22:26.608Z,4.73
2019-02-26T09:24:57.006Z,6.37
2019-02-26T09:27:29.468Z,5.93
2019-02-26T09:29:59.280Z,9.87
2019-02-26T09:32:29.293Z,7.33
2019-02-26T09:35:01.485Z,9.03
2019-02-26T09:37:30.833Z,7.10
2019-02-26T09:40:02.807Z,8.70
2019-02-26T09:42:33.325Z,7.43
2019-02-26T09:45:03.306Z,7.17
2019-02-26T09:47:33.532Z,8.80
2019-02-26T09:50:06.382Z,7.73
2019-02-26T09:52:36.411Z,6.60
2019-02-26T09:55:12.126Z,7.07
2019-02-26T09:57:42.042Z,8.30
2019-02-26T10:00:22.874Z,14.47
2019-02-26T10:02:52.099Z,5.87
2019-02-26T10:05:22.661Z,7.63
2019-02-26T10:07:54.941Z,7.73
2019-02-26T10:10:27.635Z,8.53
2019-02-26T10:12:57.283Z,7.97
2019-02-26T10:15:27.309Z,6.53
2019-02-26T10:17:59.585Z,7.73
2019-02-26T10:20:31.653Z,7.43
2019-02-26T10:23:03.221Z,8.03
2019-02-26T10:25:34.762Z,7.80
2019-02-26T10:28:08.780Z,7.70
2019-02-26T10:30:38.300Z,8.97
2019-02-26T10:33:07.692Z,6.53
2019-02-26T10:35:39.692Z,8.07
2019-02-26T10:38:11.530Z,6.03
2019-02-26T10:40:50.624Z,7.47
2019-02-26T10:43:12.143Z,7.27
2019-02-26T10:45:44.851Z,8.10
2019-02-26T10:48:15.626Z,6.83
2019-02-26T10:50:48.932Z,7.87
2019-02-26T10:53:22.376Z,6.70
2019-02-26T10:55:49.233Z,4.47
2019-02-26T10:58:19.073Z,5.43
2019-02-26T11:00:53.173Z,5.27
2019-02-26T11:03:22.221Z,5.57
2019-02-26T11:05:52.468Z,4.90
2019-02-26T11:08:24.785Z,4.23
2019-02-26T11:10:53.966Z,3.67
2019-02-26T11:13:25.560Z,4.07
2019-02-26T11:15:57.396Z,3.53
2019-02-26T11:18:27.499Z,4.80
2019-02-26T11:20:59.233Z,4.33
2019-02-26T11:23:31.154Z,3.73
2019-02-26T11:26:01.216Z,5.23
2019-02-26T11:28:32.923Z,3.57
2019-02-26T11:31:02.859Z,4.00
2019-02-26T11:33:32.672Z,4.43
2019-02-26T11:36:03.046Z,5.10
2019-02-26T11:38:36.897Z,5.07
2019-02-26T11:41:05.837Z,4.67
2019-02-26T11:43:35.866Z,4.13
2019-02-26T11:46:06.984Z,4.20
2019-02-26T11:48:37.494Z,6.60
2019-02-26T11:51:07.350Z,3.93
2019-02-26T11:53:37.175Z,5.13
2019-02-26T11:56:07.004Z,3.97
2019-02-26T11:58:36.941Z,3.73
2019-02-26T12:01:08.003Z,2.90
2019-02-26T12:03:38.916Z,6.53
2019-02-26T12:06:09.398Z,2.27
2019-02-26T12:08:40.589Z,1.60
2019-02-26T12:11:13.908Z,1.10
2019-02-26T12:13:44.505Z,1.20
2019-02-26T12:16:14.036Z,1.37
2019-02-26T12:18:45.014Z,1.10
2019-02-26T12:21:15.535Z,1.40
2019-02-26T12:23:46.789Z,1.13
2019-02-26T12:26:19.170Z,0.90
2019-02-26T12:28:48.989Z,1.07
2019-02-26T12:31:19.028Z,0.90
2019-02-26T12:33:48.860Z,1.40
2019-02-26T12:36:18.706Z,1.20
2019-02-26T12:38:50.239Z,1.67
2019-02-26T12:41:21.062Z,1.50
2019-02-26T12:43:51.169Z,1.40
2019-02-26T12:46:21.717Z,2.03
2019-02-26T12:48:52.827Z,1.43
2019-02-26T12:51:25.233Z,1.47
2019-02-26T12:53:54.197Z,1.47
2019-02-26T12:56:24.837Z,1.77
2019-02-26T12:58:55.598Z,2.13
2019-02-26T13:01:25.421Z,1.97
2019-02-26T13:03:55.567Z,1.80
2019-02-26T13:06:26.585Z,2.03
2019-02-26T13:08:56.509Z,1.30
2019-02-26T13:11:26.441Z,1.93
2019-02-26T13:13:56.446Z,1.40
2019-02-26T13:16:26.257Z,2.00
2019-02-26T13:19:00.647Z,1.87
2019-02-26T13:21:28.853Z,2.00
2019-02-26T13:24:05.204Z,2.03
2019-02-26T13:26:34.816Z,1.43
2019-02-26T13:29:01.957Z,1.80
2019-02-26T13:31:35.665Z,1.83
2019-02-26T13:34:03.472Z,1.90
2019-02-26T13:39:06.909Z,1.23
2019-02-26T13:41:39.162Z,1.03
2019-02-26T13:44:09.320Z,1.13
2019-02-26T13:46:39.347Z,1.43
2019-02-26T13:49:09.212Z,1.50
2019-02-26T13:51:39.210Z,1.10
2019-02-26T13:54:09.121Z,1.10
2019-02-26T13:56:39.026Z,1.50
2019-02-26T13:59:09.119Z,1.77
2019-02-26T14:01:39.014Z,1.47
2019-02-26T14:04:09.029Z,1.57
2019-02-26T14:06:39.086Z,1.23
2019-02-26T14:09:09.381Z,1.50
2019-02-26T14:11:40.366Z,1.90
2019-02-26T14:14:10.221Z,1.87
2019-02-26T14:16:40.030Z,1.50
2019-02-26T14:19:09.954Z,0.97
2019-02-26T14:21:39.877Z,1.17
2019-02-26T14:24:09.689Z,1.30
2019-02-26T14:26:39.540Z,1.60
2019-02-26T14:29:09.558Z,1.60
2019-02-26T14:31:40.381Z,1.97
2019-02-26T14:34:10.226Z,1.53
2019-02-26T14:36:40.164Z,1.57
2019-02-26T14:39:10.926Z,1.90
2019-02-26T14:41:40.750Z,2.00
2019-02-26T14:44:10.726Z,2.90
2019-02-26T14:46:40.681Z,1.87
2019-02-26T14:49:10.497Z,1.90
2019-02-26T14:51:40.312Z,1.57
2019-02-26T14:54:10.206Z,2.00
2019-02-26T14:56:40.248Z,1.37
2019-02-26T14:59:10.212Z,1.20
2019-02-26T15:01:40.429Z,1.57
2019-02-26T15:04:10.383Z,1.50
2019-02-26T15:06:40.234Z,2.20
2019-02-26T15:09:10.136Z,1.20
2019-02-26T15:11:40.550Z,1.50
2019-02-26T15:14:10.407Z,1.87
2019-02-26T15:16:40.246Z,1.13
2019-02-26T15:19:10.174Z,2.27
2019-02-26T15:21:39.991Z,1.13
2019-02-26T15:24:10.037Z,1.40
2019-02-26T15:26:39.966Z,1.60
2019-02-26T15:29:09.822Z,1.50
2019-02-26T15:31:39.750Z,1.70
2019-02-26T15:34:09.565Z,1.47
2019-02-26T15:36:40.094Z,2.07
2019-02-26T15:39:10.127Z,1.87
2019-02-26T15:41:40.106Z,2.00
2019-02-26T15:44:11.855Z,1.73
2019-02-26T15:46:41.712Z,2.23
2019-02-26T15:49:12.254Z,2.40
2019-02-26T15:51:43.780Z,3.10
2019-02-26T15:54:13.722Z,2.60
2019-02-26T15:56:43.558Z,2.80
2019-02-26T15:59:13.496Z,2.33
2019-02-26T16:01:44.013Z,2.37
2019-02-26T16:04:13.890Z,2.87
2019-02-26T16:06:43.781Z,2.43
2019-02-26T16:09:14.825Z,2.70
2019-02-26T16:11:45.693Z,2.47
2019-02-26T16:14:15.712Z,3.60
2019-02-26T16:16:45.672Z,2.40
2019-02-26T16:19:15.468Z,2.43
2019-02-26T16:21:45.315Z,1.73
2019-02-26T16:24:15.125Z,2.40
2019-02-26T16:26:44.985Z,1.60
2019-02-26T16:29:16.551Z,1.50
2019-02-26T16:31:46.342Z,1.70
2019-02-26T16:34:17.492Z,2.47
2019-02-26T16:36:47.713Z,1.53
2019-02-26T16:39:17.602Z,1.47
2019-02-26T16:41:47.504Z,1.57
2019-02-26T16:44:19.085Z,1.93
2019-02-26T16:46:48.905Z,1.80
2019-02-26T16:49:18.960Z,2.20
2019-02-26T16:51:48.775Z,1.93
2019-02-26T16:54:19.029Z,2.03
2019-02-26T16:56:48.860Z,2.23
2019-02-26T16:59:18.682Z,2.00
2019-02-26T17:01:48.838Z,2.30
2019-02-26T17:04:18.743Z,2.43
2019-02-26T17:06:48.756Z,2.63
2019-02-26T17:09:19.009Z,2.50
2019-02-26T17:11:50.085Z,2.57
2019-02-26T17:14:21.805Z,2.70
2019-02-26T17:16:51.687Z,2.70
2019-02-26T17:19:21.522Z,4.10
2019-02-26T17:21:52.010Z,3.20
2019-02-26T17:24:21.896Z,2.97
2019-02-26T17:26:51.771Z,3.43
2019-02-26T17:29:21.590Z,3.53
2019-02-26T17:31:51.555Z,3.17
2019-02-26T17:34:23.441Z,2.90
2019-02-26T17:36:53.857Z,2.90
2019-02-26T17:39:25.728Z,2.60
2019-02-26T17:41:55.179Z,3.30
2019-02-26T17:44:25.144Z,2.20
2019-02-26T17:46:55.000Z,3.07
2019-02-26T17:49:24.826Z,2.90
2019-02-26T17:51:54.842Z,2.63
2019-02-26T17:54:24.693Z,2.80
2019-02-26T17:56:54.781Z,3.37
2019-02-26T17:59:24.669Z,2.87
2019-02-26T18:01:55.528Z,4.03
2019-02-26T18:04:25.342Z,2.77
2019-02-26T18:06:55.219Z,3.53
2019-02-26T18:09:25.069Z,2.93
2019-02-26T18:11:54.882Z,3.17
2019-02-26T18:14:24.882Z,3.23
2019-02-26T18:16:54.754Z,2.50
2019-02-26T18:19:24.862Z,3.33
2019-02-26T18:21:54.657Z,2.97
2019-02-26T18:24:24.470Z,3.43
2019-02-26T18:26:55.004Z,3.37
2019-02-26T18:29:25.655Z,3.03
2019-02-26T18:31:57.174Z,3.10
2019-02-26T18:34:27.220Z,2.63
2019-02-26T18:36:57.193Z,2.90
2019-02-26T18:39:27.020Z,3.17
2019-02-26T18:41:56.960Z,2.97
2019-02-26T18:44:27.073Z,3.97
2019-02-26T18:46:57.041Z,3.63
2019-02-26T18:49:27.022Z,5.00
2019-02-26T18:51:56.905Z,4.13
2019-02-26T18:54:26.735Z,3.13
2019-02-26T18:56:56.538Z,3.63
2019-02-26T18:59:26.470Z,3.40
2019-02-26T19:01:56.222Z,3.77
2019-02-26T19:04:26.026Z,3.40
2019-02-26T19:06:59.492Z,3.53
2019-02-26T19:09:27.854Z,2.57
2019-02-26T19:11:58.389Z,4.20
2019-02-26T19:14:28.241Z,3.37
2019-02-26T19:16:58.753Z,3.40
2019-02-26T19:19:28.538Z,3.90
2019-02-26T19:21:58.995Z,3.27
2019-02-26T19:24:29.036Z,3.97
2019-02-26T19:26:58.989Z,3.73
2019-02-26T19:29:31.536Z,3.40
2019-02-26T19:32:01.413Z,4.07
2019-02-26T19:34:31.753Z,4.70
2019-02-26T19:37:01.858Z,6.03
2019-02-26T19:39:33.823Z,5.03
2019-02-26T19:42:03.404Z,4.20
2019-02-26T19:44:35.732Z,4.47
2019-02-26T19:47:04.812Z,5.17
2019-02-26T19:49:36.847Z,4.27
2019-02-26T19:52:06.458Z,4.40
2019-02-26T19:54:36.537Z,4.00
2019-02-26T19:57:06.694Z,6.00
2019-02-26T19:59:36.562Z,3.80
2019-02-26T20:02:07.079Z,6.00
2019-02-26T20:04:38.663Z,4.20
2019-02-26T20:07:10.092Z,3.83
2019-02-26T20:09:41.568Z,5.43
2019-02-26T20:12:11.462Z,4.53
2019-02-26T20:14:41.248Z,4.53
2019-02-26T20:17:14.842Z,3.60
2019-02-26T20:19:42.647Z,3.10
2019-02-26T20:22:12.498Z,4.43
2019-02-26T20:24:43.273Z,5.00
2019-02-26T20:27:13.029Z,3.77
2019-02-26T20:29:42.806Z,3.50
2019-02-26T20:32:12.701Z,3.73
2019-02-26T20:34:42.675Z,4.07
2019-02-26T20:37:12.425Z,3.70
2019-02-26T20:39:44.149Z,4.43
2019-02-26T20:42:14.781Z,3.60
2019-02-26T20:44:45.479Z,3.67
2019-02-26T20:47:15.405Z,4.33
2019-02-26T20:49:46.330Z,4.13
2019-02-26T20:52:16.709Z,3.90
2019-02-26T20:54:46.723Z,3.30
2019-02-26T20:57:16.582Z,3.70
2019-02-26T20:59:46.396Z,4.50
2019-02-26T21:02:16.281Z,4.10
2019-02-26T21:04:46.222Z,5.07
2019-02-26T21:07:16.043Z,5.53
2019-02-26T21:09:46.145Z,5.30
2019-02-26T21:12:15.998Z,4.17
2019-02-26T21:14:45.802Z,3.83
2019-02-26T21:17:15.595Z,4.43
2019-02-26T21:19:45.450Z,4.60
2019-02-26T21:22:15.271Z,5.07
2019-02-26T21:24:45.121Z,4.50
2019-02-26T21:27:14.933Z,4.60
2019-02-26T21:29:45.612Z,3.87
2019-02-26T21:32:15.427Z,3.87
2019-02-26T21:34:47.605Z,3.87
2019-02-26T21:37:18.769Z,4.07
2019-02-26T21:39:48.649Z,4.57
2019-02-26T21:42:18.546Z,4.83
2019-02-26T21:44:48.350Z,5.13
2019-02-26T21:47:20.204Z,4.53
2019-02-26T21:49:49.784Z,5.10
2019-02-26T21:52:19.750Z,5.07
2019-02-26T21:54:49.606Z,5.07
2019-02-26T21:57:21.520Z,5.00
2019-02-26T21:59:51.725Z,6.17
2019-02-26T22:02:21.520Z,4.83
2019-02-26T22:04:51.308Z,4.73
2019-02-26T22:07:21.076Z,4.10
2019-02-26T22:09:50.886Z,5.03
2019-02-26T22:12:21.812Z,4.93
2019-02-26T22:14:52.361Z,4.47
2019-02-26T22:17:24.998Z,5.20
2019-02-26T22:19:53.926Z,5.07
2019-02-26T22:22:25.974Z,4.30
2019-02-26T22:24:55.232Z,4.17
2019-02-26T22:27:25.075Z,4.37
2019-02-26T22:29:54.881Z,4.90
2019-02-26T22:32:24.806Z,3.67
2019-02-26T22:34:54.620Z,5.07
2019-02-26T22:37:24.667Z,4.30
2019-02-26T22:39:55.836Z,4.43
2019-02-26T22:42:26.533Z,4.00
2019-02-26T22:44:56.548Z,3.97
2019-02-26T22:47:26.469Z,4.93
2019-02-26T22:49:56.268Z,3.57
2019-02-26T22:52:26.123Z,4.33
2019-02-26T22:54:55.942Z,5.33
2019-02-26T22:57:27.603Z,4.97
2019-02-26T22:59:57.397Z,5.80
2019-02-26T23:02:28.040Z,5.17
2019-02-26T23:04:57.810Z,3.73
2019-02-26T23:07:27.641Z,4.63
2019-02-26T23:09:57.716Z,3.83
2019-02-26T23:12:28.196Z,4.17
2019-02-26T23:14:58.910Z,4.50
2019-02-26T23:17:29.032Z,4.13
2019-02-26T23:19:58.890Z,4.50
2019-02-26T23:22:29.269Z,3.53
2019-02-26T23:25:01.025Z,4.63
2019-02-26T23:27:32.787Z,6.30
2019-02-26T23:30:03.753Z,5.47
2019-02-26T23:32:33.725Z,4.23
2019-02-26T23:35:08.709Z,3.97
2019-02-26T23:37:38.440Z,5.73
2019-02-26T23:40:10.583Z,3.50
2019-02-26T23:42:41.472Z,5.53
2019-02-26T23:45:12.376Z,5.13
2019-02-26T23:47:43.015Z,5.70
2019-02-26T23:50:13.234Z,4.37
2019-02-26T23:52:43.301Z,4.83
2019-02-26T23:55:13.981Z,4.13
2019-02-26T23:57:43.975Z,5.70
